createdAt,value
2018-05-23T00:02:22.119Z,5.53
2018-05-23T00:04:49.639Z,5.12
2018-05-23T00:07:17.162Z,5.93
2018-05-23T00:09:44.700Z,5.57
2018-05-23T00:12:12.223Z,6.07
2018-05-23T00:14:39.744Z,5.70
2018-05-23T00:17:07.265Z,5.13
2018-05-23T00:19:34.785Z,5.57
2018-05-23T00:22:02.317Z,5.70
2018-05-23T00:24:29.826Z,5.83
2018-05-23T00:26:57.349Z,5.50
2018-05-23T00:29:24.862Z,6.03
2018-05-23T00:31:52.384Z,5.80
2018-05-23T00:34:19.907Z,5.67
2018-05-23T00:36:47.426Z,5.62
2018-05-23T00:39:14.930Z,5.77
2018-05-23T00:41:42.458Z,6.93
2018-05-23T00:44:09.977Z,6.60
2018-05-23T00:46:37.501Z,6.40
2018-05-23T00:49:05.018Z,6.10
2018-05-23T00:51:32.565Z,6.57
2018-05-23T00:54:00.087Z,6.47
2018-05-23T00:56:27.607Z,6.03
2018-05-23T00:58:55.120Z,5.97
2018-05-23T01:01:22.636Z,6.70
2018-05-23T01:03:50.156Z,6.65
2018-05-23T01:06:18.439Z,6.70
2018-05-23T01:08:45.963Z,6.90
2018-05-23T01:11:13.476Z,7.00
2018-05-23T01:13:41.766Z,7.07
2018-05-23T01:16:09.292Z,7.00
2018-05-23T01:18:36.828Z,6.95
2018-05-23T01:21:04.340Z,6.87
2018-05-23T01:23:32.645Z,6.63
2018-05-23T01:26:00.163Z,7.07
2018-05-23T01:28:27.721Z,6.90
2018-05-23T01:30:55.241Z,6.55
2018-05-23T01:33:22.793Z,6.57
2018-05-23T01:35:50.312Z,7.30
2018-05-23T01:38:17.834Z,7.53
2018-05-23T01:40:45.394Z,7.70
2018-05-23T01:43:12.906Z,7.13
2018-05-23T01:45:40.424Z,7.00
2018-05-23T01:48:07.934Z,7.10
2018-05-23T01:50:35.452Z,6.68
2018-05-23T01:53:02.976Z,7.30
2018-05-23T01:55:30.508Z,7.37
2018-05-23T01:57:58.042Z,6.77
2018-05-23T02:00:26.568Z,6.97
2018-05-23T02:02:54.092Z,7.35
2018-05-23T02:05:21.613Z,7.90
2018-05-23T02:07:49.164Z,7.70
2018-05-23T02:10:16.692Z,6.80
2018-05-23T02:12:44.200Z,7.07
2018-05-23T02:15:11.753Z,7.30
2018-05-23T02:17:39.264Z,8.27
2018-05-23T02:20:06.840Z,7.83
2018-05-23T02:22:34.430Z,7.13
2018-05-23T02:25:01.955Z,8.53
2018-05-23T02:27:29.472Z,8.43
2018-05-23T02:29:57.016Z,8.27
2018-05-23T02:32:24.535Z,7.97
2018-05-23T02:34:52.611Z,7.80
2018-05-23T02:37:20.129Z,7.90
2018-05-23T02:39:48.465Z,8.77
2018-05-23T02:42:15.977Z,8.00
2018-05-23T02:44:43.793Z,8.80
2018-05-23T02:47:11.403Z,8.43
2018-05-23T02:49:38.864Z,8.60
2018-05-23T02:52:06.417Z,8.10
2018-05-23T02:54:33.959Z,8.70
2018-05-23T02:57:01.630Z,8.77
2018-05-23T02:59:30.020Z,9.30
2018-05-23T03:01:57.588Z,9.67
2018-05-23T03:04:25.213Z,9.27
2018-05-23T03:06:53.070Z,10.30
2018-05-23T03:09:20.645Z,9.33
2018-05-23T03:11:48.164Z,8.90
2018-05-23T03:14:15.689Z,9.20
2018-05-23T03:16:43.211Z,9.57
2018-05-23T03:19:11.473Z,10.70
2018-05-23T03:21:39.032Z,9.70
2018-05-23T03:24:06.560Z,10.43
2018-05-23T03:26:34.079Z,10.73
2018-05-23T03:29:02.383Z,10.43
2018-05-23T03:31:29.898Z,10.17
2018-05-23T03:33:57.424Z,11.17
2018-05-23T03:36:24.955Z,10.33
2018-05-23T03:38:52.499Z,10.23
2018-05-23T03:41:20.023Z,11.03
2018-05-23T03:43:47.539Z,11.43
2018-05-23T03:46:15.067Z,11.03
2018-05-23T03:48:42.592Z,12.07
2018-05-23T03:51:10.907Z,11.43
2018-05-23T03:53:38.423Z,11.83
2018-05-23T03:56:05.951Z,10.77
2018-05-23T03:58:33.476Z,10.80
2018-05-23T04:01:12.720Z,11.27
2018-05-23T04:03:52.224Z,11.03
2018-05-23T04:09:28.241Z,10.77
2018-05-23T04:11:55.760Z,11.17
2018-05-23T04:14:24.054Z,11.17
2018-05-23T04:16:51.577Z,11.87
2018-05-23T04:19:19.115Z,11.73
2018-05-23T04:21:46.643Z,11.77
2018-05-23T04:24:14.172Z,11.77
2018-05-23T04:26:41.688Z,11.50
2018-05-23T04:29:09.203Z,10.55
2018-05-23T04:31:36.739Z,10.33
2018-05-23T04:34:04.279Z,10.75
2018-05-23T04:36:31.796Z,11.20
2018-05-23T04:38:59.324Z,11.20
2018-05-23T04:41:27.615Z,11.65
2018-05-23T04:43:55.144Z,11.02
2018-05-23T04:46:22.671Z,11.25
2018-05-23T04:48:50.211Z,10.57
2018-05-23T04:51:17.750Z,11.02
2018-05-23T04:53:45.268Z,9.85
2018-05-23T04:56:12.802Z,10.50
2018-05-23T04:58:40.325Z,9.85
2018-05-23T05:01:07.867Z,10.45
2018-05-23T05:03:35.392Z,10.45
2018-05-23T05:06:03.688Z,10.93
2018-05-23T05:08:31.244Z,11.25
2018-05-23T05:10:58.795Z,11.57
2018-05-23T05:13:26.320Z,10.98
2018-05-23T05:15:53.867Z,11.12
2018-05-23T05:18:21.403Z,11.48
2018-05-23T05:20:48.943Z,11.18
2018-05-23T05:23:16.467Z,10.57
2018-05-23T05:25:44.026Z,9.88
2018-05-23T05:28:11.555Z,10.88
2018-05-23T05:30:39.089Z,11.35
2018-05-23T05:33:06.617Z,11.15
2018-05-23T05:35:34.154Z,11.10
2018-05-23T05:38:01.675Z,11.68
2018-05-23T05:40:29.229Z,11.25
2018-05-23T05:42:56.751Z,10.93
2018-05-23T05:45:24.290Z,11.27
2018-05-23T05:47:51.818Z,10.73
2018-05-23T05:50:20.176Z,10.77
2018-05-23T05:52:47.687Z,10.90
2018-05-23T05:55:16.237Z,11.35
2018-05-23T05:57:43.770Z,10.98
2018-05-23T06:00:11.288Z,11.68
2018-05-23T06:02:38.811Z,11.20
2018-05-23T06:05:06.339Z,11.07
2018-05-23T06:07:33.868Z,11.25
2018-05-23T06:10:01.563Z,10.60
2018-05-23T06:12:29.722Z,11.07
2018-05-23T06:14:57.256Z,11.30
2018-05-23T06:17:24.795Z,10.90
2018-05-23T06:19:52.323Z,10.95
2018-05-23T06:22:19.910Z,10.63
2018-05-23T06:24:47.392Z,9.50
2018-05-23T06:27:14.916Z,9.98
2018-05-23T06:29:42.470Z,9.35
2018-05-23T06:32:09.987Z,9.85
2018-05-23T06:34:37.516Z,9.75
2018-05-23T06:37:05.032Z,9.77
2018-05-23T06:39:32.551Z,9.90
2018-05-23T06:42:00.082Z,9.75
2018-05-23T06:44:27.599Z,9.25
2018-05-23T06:46:55.128Z,9.50
2018-05-23T06:49:22.647Z,9.38
2018-05-23T06:51:50.180Z,9.75
2018-05-23T06:54:17.707Z,9.48
2018-05-23T06:56:45.232Z,9.27
2018-05-23T06:59:12.764Z,9.55
2018-05-23T07:01:40.296Z,9.75
2018-05-23T07:04:07.807Z,8.73
2018-05-23T07:06:35.323Z,9.48
2018-05-23T07:09:02.860Z,9.18
2018-05-23T07:11:30.387Z,9.27
2018-05-23T07:13:57.900Z,9.18
2018-05-23T07:16:26.176Z,7.97
2018-05-23T07:18:53.691Z,8.70
2018-05-23T07:21:21.352Z,7.93
2018-05-23T07:23:48.879Z,8.30
2018-05-23T07:26:16.401Z,8.00
2018-05-23T07:28:43.920Z,8.10
2018-05-23T07:31:11.444Z,8.75
2018-05-23T07:33:38.975Z,7.62
2018-05-23T07:36:06.813Z,8.13
2018-05-23T07:38:34.344Z,7.80
2018-05-23T07:41:01.882Z,7.50
2018-05-23T07:43:30.083Z,7.00
2018-05-23T07:45:57.665Z,7.30
2018-05-23T07:48:25.192Z,7.60
2018-05-23T07:50:52.713Z,7.30
2018-05-23T07:53:20.250Z,7.30
2018-05-23T07:55:47.771Z,7.28
2018-05-23T08:00:48.908Z,7.10
2018-05-23T08:03:16.454Z,6.90
2018-05-23T08:05:43.974Z,6.45
2018-05-23T08:08:11.514Z,6.00
2018-05-23T08:10:39.044Z,6.65
2018-05-23T08:13:06.600Z,5.97
2018-05-23T08:15:34.110Z,6.40
2018-05-23T08:18:01.653Z,5.82
2018-05-23T08:20:30.015Z,6.45
2018-05-23T08:22:57.551Z,6.12
2018-05-23T08:25:25.071Z,6.45
2018-05-23T08:27:52.609Z,5.87
2018-05-23T08:30:20.141Z,6.30
2018-05-23T08:32:47.674Z,6.32
2018-05-23T08:35:15.447Z,6.60
2018-05-23T08:37:43.048Z,6.22
2018-05-23T08:40:10.559Z,5.90
2018-05-23T08:42:38.097Z,6.00
2018-05-23T08:45:05.623Z,6.47
2018-05-23T08:47:33.149Z,5.60
2018-05-23T08:50:00.827Z,5.78
2018-05-23T08:52:28.349Z,6.22
2018-05-23T08:54:55.871Z,5.97
2018-05-23T08:57:23.393Z,5.50
2018-05-23T08:59:50.927Z,5.03
2018-05-23T09:02:18.447Z,4.75
2018-05-23T09:04:45.981Z,4.97
2018-05-23T09:07:13.507Z,4.53
2018-05-23T09:09:41.036Z,4.75
2018-05-23T09:12:08.562Z,4.95
2018-05-23T09:14:36.116Z,4.80
2018-05-23T09:17:03.627Z,4.55
2018-05-23T09:19:31.928Z,4.65
2018-05-23T09:21:59.453Z,4.70
2018-05-23T09:24:27.003Z,5.10
2018-05-23T09:26:54.526Z,4.90
2018-05-23T09:29:22.899Z,5.07
2018-05-23T09:31:50.424Z,4.65
2018-05-23T09:34:18.736Z,5.25
2018-05-23T09:36:46.251Z,5.18
2018-05-23T09:39:14.563Z,4.90
2018-05-23T09:41:42.212Z,5.05
2018-05-23T09:44:09.775Z,4.87
2018-05-23T09:46:37.292Z,4.78
2018-05-23T09:49:05.283Z,5.10
2018-05-23T09:51:32.804Z,5.18
2018-05-23T09:54:00.353Z,4.75
2018-05-23T09:56:27.871Z,4.70
2018-05-23T09:58:55.409Z,5.20
2018-05-23T10:01:22.946Z,4.72
2018-05-23T10:03:50.492Z,4.37
2018-05-23T10:06:18.017Z,4.47
2018-05-23T10:08:45.602Z,4.93
2018-05-23T10:11:13.122Z,4.70
2018-05-23T10:13:40.661Z,4.50
2018-05-23T10:16:08.184Z,4.15
2018-05-23T10:18:35.729Z,4.30
2018-05-23T10:21:03.285Z,4.75
2018-05-23T10:23:30.831Z,4.20
2018-05-23T10:25:58.354Z,4.20
2018-05-23T10:28:25.877Z,5.32
2018-05-23T10:30:53.395Z,4.90
2018-05-23T10:33:20.937Z,4.28
2018-05-23T10:35:48.464Z,4.43
2018-05-23T10:38:15.987Z,4.65
2018-05-23T10:40:43.507Z,6.85
2018-05-23T10:43:11.028Z,5.37
2018-05-23T10:45:38.555Z,5.10
2018-05-23T10:48:06.076Z,5.22
2018-05-23T10:50:33.596Z,5.55
2018-05-23T10:53:01.123Z,7.50
2018-05-23T10:55:28.644Z,9.93
2018-05-23T10:57:56.160Z,5.28
2018-05-23T11:00:23.683Z,5.60
2018-05-23T11:02:51.294Z,6.28
2018-05-23T11:05:18.748Z,5.05
2018-05-23T11:07:46.262Z,5.53
2018-05-23T11:10:13.784Z,5.05
2018-05-23T11:12:41.304Z,5.00
2018-05-23T11:15:08.906Z,5.10
2018-05-23T11:17:36.361Z,4.60
2018-05-23T11:20:03.875Z,4.85
2018-05-23T11:22:31.403Z,5.25
2018-05-23T11:24:58.920Z,4.95
2018-05-23T11:27:27.199Z,5.45
2018-05-23T11:29:55.475Z,5.00
2018-05-23T11:32:23.760Z,4.60
2018-05-23T11:34:51.288Z,5.60
2018-05-23T11:37:18.809Z,6.45
2018-05-23T11:39:46.333Z,5.95
2018-05-23T11:42:13.856Z,6.87
2018-05-23T11:44:41.375Z,5.20
2018-05-23T11:47:08.899Z,5.65
2018-05-23T11:49:36.440Z,6.10
2018-05-23T11:52:03.947Z,6.03
2018-05-23T11:54:31.488Z,4.95
2018-05-23T11:56:59.016Z,5.30
2018-05-23T11:59:26.559Z,4.87
2018-05-23T12:01:54.132Z,5.62
2018-05-23T12:04:21.611Z,5.47
2018-05-23T12:06:49.895Z,5.93
2018-05-23T12:09:17.412Z,5.15
2018-05-23T12:11:44.939Z,4.72
2018-05-23T12:14:13.211Z,4.75
2018-05-23T12:16:40.723Z,4.97
2018-05-23T12:19:08.603Z,4.97
2018-05-23T12:21:36.131Z,4.65
2018-05-23T12:24:03.651Z,4.65
2018-05-23T12:26:31.172Z,4.85
2018-05-23T12:28:58.701Z,20.55
2018-05-23T12:31:26.275Z,16.42
2018-05-23T12:33:53.802Z,8.57
2018-05-23T12:36:21.368Z,6.32
2018-05-23T12:38:48.892Z,6.78
2018-05-23T12:41:16.427Z,7.45
2018-05-23T12:43:43.951Z,7.82
2018-05-23T12:46:11.843Z,6.15
2018-05-23T12:48:39.367Z,4.72
2018-05-23T12:51:07.664Z,4.60
2018-05-23T12:53:35.187Z,4.40
2018-05-23T12:56:02.743Z,4.70
2018-05-23T12:58:30.253Z,4.32
2018-05-23T13:00:57.797Z,4.12
2018-05-23T13:03:25.409Z,4.05
2018-05-23T13:05:53.640Z,4.62
2018-05-23T13:08:21.171Z,5.00
2018-05-23T13:10:48.716Z,4.28
2018-05-23T13:13:18.957Z,3.87
2018-05-23T13:15:46.500Z,4.18
2018-05-23T13:18:14.021Z,4.05
2018-05-23T13:20:41.569Z,4.22
2018-05-23T13:23:09.088Z,3.67
2018-05-23T13:25:37.387Z,3.67
2018-05-23T13:28:05.675Z,3.65
2018-05-23T13:30:33.212Z,4.95
2018-05-23T13:33:00.733Z,4.20
2018-05-23T13:35:28.284Z,4.40
2018-05-23T13:37:55.798Z,4.18
2018-05-23T13:40:23.316Z,3.67
2018-05-23T13:42:50.824Z,3.62
2018-05-23T13:45:18.348Z,3.50
2018-05-23T13:47:45.864Z,3.17
2018-05-23T13:50:13.376Z,3.65
2018-05-23T13:52:40.904Z,3.40
2018-05-23T13:55:08.437Z,3.65
2018-05-23T13:57:35.968Z,3.58
2018-05-23T14:00:03.487Z,3.17
2018-05-23T14:02:31.002Z,3.28
2018-05-23T14:04:58.520Z,3.65
2018-05-23T14:07:26.034Z,6.40
2018-05-23T14:09:53.558Z,3.20
2018-05-23T14:12:21.104Z,2.90
2018-05-23T14:14:48.644Z,3.05
2018-05-23T14:17:16.186Z,3.12
2018-05-23T14:19:43.708Z,3.60
2018-05-23T14:22:11.252Z,2.92
2018-05-23T14:24:38.771Z,3.35
2018-05-23T14:27:06.308Z,3.75
2018-05-23T14:29:33.819Z,3.08
2018-05-23T14:32:01.379Z,3.35
2018-05-23T14:34:28.928Z,3.50
2018-05-23T14:36:56.472Z,3.70
2018-05-23T14:39:23.984Z,3.97
2018-05-23T14:41:51.520Z,3.85
2018-05-23T14:44:19.040Z,3.40
2018-05-23T14:46:46.579Z,3.30
2018-05-23T14:49:14.851Z,3.67
2018-05-23T14:51:43.155Z,3.60
2018-05-23T14:54:10.680Z,3.50
2018-05-23T14:56:38.235Z,3.80
2018-05-23T14:59:05.757Z,3.55
2018-05-23T15:01:33.315Z,3.25
2018-05-23T15:04:00.843Z,3.42
2018-05-23T15:06:29.154Z,3.60
2018-05-23T15:08:56.752Z,3.22
2018-05-23T15:11:24.234Z,3.60
2018-05-23T15:13:52.518Z,3.33
2018-05-23T15:16:20.059Z,3.10
2018-05-23T15:18:47.584Z,3.22
2018-05-23T15:21:15.121Z,3.20
2018-05-23T15:23:42.647Z,3.08
2018-05-23T15:26:10.171Z,3.10
2018-05-23T15:28:37.684Z,3.70
2018-05-23T15:31:05.201Z,2.72
2018-05-23T15:33:32.723Z,2.70
2018-05-23T15:36:00.247Z,3.20
2018-05-23T15:38:27.757Z,3.40
2018-05-23T15:40:55.265Z,3.15
2018-05-23T15:43:23.540Z,2.90
2018-05-23T15:45:51.058Z,3.35
2018-05-23T15:48:19.027Z,2.92
2018-05-23T15:50:46.567Z,3.15
2018-05-23T15:53:14.438Z,3.33
2018-05-23T15:55:41.955Z,3.25
2018-05-23T15:58:09.472Z,2.85
2018-05-23T16:00:37.341Z,3.10
2018-05-23T16:03:04.894Z,3.30
2018-05-23T16:05:32.412Z,3.25
2018-05-23T16:08:00.735Z,3.37
2018-05-23T16:10:28.259Z,3.20
2018-05-23T16:12:55.774Z,3.25
2018-05-23T16:15:23.285Z,3.50
2018-05-23T16:17:50.808Z,2.90
2018-05-23T16:20:18.327Z,3.53
2018-05-23T16:22:45.852Z,3.40
2018-05-23T16:25:13.372Z,3.50
2018-05-23T16:27:40.891Z,3.42
2018-05-23T16:30:08.409Z,3.62
2018-05-23T16:32:35.932Z,3.28
2018-05-23T16:35:03.452Z,3.22
2018-05-23T16:37:30.975Z,3.45
2018-05-23T16:39:58.506Z,3.03
2018-05-23T16:42:26.047Z,3.53
2018-05-23T16:44:53.629Z,3.72
2018-05-23T16:47:21.176Z,3.15
2018-05-23T16:49:49.104Z,3.33
2018-05-23T16:52:16.650Z,3.05
2018-05-23T16:54:44.245Z,3.30
2018-05-23T16:57:11.731Z,3.25
2018-05-23T16:59:39.253Z,3.08
2018-05-23T17:02:06.767Z,3.80
2018-05-23T17:04:34.289Z,3.10
2018-05-23T17:07:01.824Z,3.20
2018-05-23T17:09:29.344Z,3.53
2018-05-23T17:11:56.868Z,3.17
2018-05-23T17:14:24.386Z,3.28
2018-05-23T17:16:51.910Z,2.97
2018-05-23T17:19:19.421Z,3.10
2018-05-23T17:21:47.867Z,3.30
2018-05-23T17:24:15.383Z,3.47
2018-05-23T17:26:42.919Z,3.10
2018-05-23T17:29:10.457Z,3.30
2018-05-23T17:31:37.978Z,3.30
2018-05-23T17:34:05.497Z,3.33
2018-05-23T17:36:33.319Z,3.50
2018-05-23T17:39:00.843Z,3.42
2018-05-23T17:41:28.376Z,3.03
2018-05-23T17:43:55.902Z,3.30
2018-05-23T17:46:23.416Z,3.08
2018-05-23T17:48:50.945Z,3.20
2018-05-23T17:51:18.508Z,3.62
2018-05-23T17:53:46.026Z,3.22
2018-05-23T17:56:13.535Z,3.33
2018-05-23T17:58:41.061Z,3.60
2018-05-23T18:01:08.567Z,3.42
2018-05-23T18:03:36.095Z,2.95
2018-05-23T18:06:03.744Z,3.40
2018-05-23T18:08:31.154Z,3.50
2018-05-23T18:10:58.669Z,3.15
2018-05-23T18:13:26.564Z,3.10
2018-05-23T18:15:54.099Z,3.33
2018-05-23T18:18:21.632Z,3.50
2018-05-23T18:20:49.146Z,3.15
2018-05-23T18:23:16.693Z,2.92
2018-05-23T18:25:44.210Z,3.25
2018-05-23T18:28:11.835Z,3.20
2018-05-23T18:30:39.307Z,3.50
2018-05-23T18:33:06.824Z,3.17
2018-05-23T18:35:34.347Z,3.30
2018-05-23T18:38:01.863Z,2.87
2018-05-23T18:40:29.715Z,3.17
2018-05-23T18:42:57.224Z,3.35
2018-05-23T18:45:24.739Z,3.55
2018-05-23T18:47:52.273Z,3.40
2018-05-23T18:50:19.792Z,3.25
2018-05-23T18:52:48.475Z,3.00
2018-05-23T18:55:15.992Z,3.15
2018-05-23T18:57:43.512Z,3.67
2018-05-23T19:00:11.055Z,3.33
2018-05-23T19:02:38.576Z,2.90
2018-05-23T19:05:06.101Z,3.22
2018-05-23T19:07:33.641Z,3.12
2018-05-23T19:10:01.160Z,3.20
2018-05-23T19:12:28.688Z,3.08
2018-05-23T19:14:56.230Z,3.30
2018-05-23T19:17:23.939Z,3.37
2018-05-23T19:19:51.526Z,3.10
2018-05-23T19:22:19.500Z,3.65
2018-05-23T19:24:47.069Z,3.37
2018-05-23T19:27:14.654Z,3.50
2018-05-23T19:29:42.932Z,3.45
2018-05-23T19:32:10.451Z,3.47
2018-05-23T19:34:37.995Z,3.78
2018-05-23T19:37:05.514Z,3.33
2018-05-23T19:39:33.064Z,3.70
2018-05-23T19:42:00.585Z,3.42
2018-05-23T19:44:28.135Z,3.50
2018-05-23T19:46:55.683Z,3.10
2018-05-23T19:49:23.519Z,3.40
2018-05-23T19:51:51.044Z,3.65
2018-05-23T19:54:18.619Z,3.90
2018-05-23T19:56:46.134Z,3.58
2018-05-23T19:59:13.679Z,3.83
2018-05-23T20:01:41.213Z,3.67
2018-05-23T20:04:09.536Z,3.62
2018-05-23T20:06:37.068Z,3.95
2018-05-23T20:09:05.407Z,3.55
2018-05-23T20:11:32.920Z,3.83
2018-05-23T20:14:00.542Z,3.90
2018-05-23T20:16:27.963Z,3.60
2018-05-23T20:18:55.482Z,3.67
2018-05-23T20:21:23.006Z,3.58
2018-05-23T20:23:50.523Z,3.80
2018-05-23T20:26:18.035Z,3.55
2018-05-23T20:28:45.556Z,3.60
2018-05-23T20:31:13.068Z,3.58
2018-05-23T20:33:40.591Z,3.62
2018-05-23T20:36:08.115Z,3.37
2018-05-23T20:38:36.229Z,4.10
2018-05-23T20:41:03.739Z,3.95
2018-05-23T20:43:31.246Z,3.53
2018-05-23T20:45:58.764Z,3.58
2018-05-23T20:48:26.283Z,4.07
2018-05-23T20:50:53.795Z,3.50
2018-05-23T20:53:21.320Z,4.10
2018-05-23T20:55:48.843Z,3.37
2018-05-23T20:58:16.365Z,3.60
2018-05-23T21:00:43.888Z,3.78
2018-05-23T21:03:11.414Z,3.45
2018-05-23T21:05:39.023Z,3.67
2018-05-23T21:08:06.483Z,3.62
2018-05-23T21:10:34.010Z,3.33
2018-05-23T21:13:01.516Z,3.80
2018-05-23T21:15:29.028Z,3.30
2018-05-23T21:17:56.544Z,3.33
2018-05-23T21:20:24.064Z,4.05
2018-05-23T21:22:51.586Z,3.15
2018-05-23T21:25:19.846Z,3.20
2018-05-23T21:27:48.629Z,3.55
2018-05-23T21:30:16.084Z,3.67
2018-05-23T21:32:43.603Z,3.47
2018-05-23T21:35:11.890Z,3.42
2018-05-23T21:37:40.179Z,3.55
2018-05-23T21:40:07.725Z,3.70
2018-05-23T21:42:36.004Z,3.10
2018-05-23T21:45:04.299Z,2.92
2018-05-23T21:47:31.824Z,3.22
2018-05-23T21:49:59.346Z,2.95
2018-05-23T21:52:26.861Z,2.90
2018-05-23T21:54:55.143Z,3.00
2018-05-23T21:57:23.436Z,2.75
2018-05-23T21:59:50.960Z,2.90
2018-05-23T22:02:18.467Z,2.78
2018-05-23T22:04:45.983Z,3.20
2018-05-23T22:07:13.499Z,2.95
2018-05-23T22:09:41.032Z,2.78
2018-05-23T22:12:08.556Z,2.90
2018-05-23T22:14:36.083Z,3.00
2018-05-23T22:17:03.635Z,3.00
2018-05-23T22:19:31.140Z,2.62
2018-05-23T22:21:58.660Z,2.83
2018-05-23T22:24:26.216Z,2.58
2018-05-23T22:26:53.729Z,3.03
2018-05-23T22:29:21.244Z,2.55
2018-05-23T22:31:48.767Z,2.37
2018-05-23T22:34:16.284Z,2.60
2018-05-23T22:36:43.823Z,2.60
2018-05-23T22:39:11.342Z,2.37
2018-05-23T22:41:38.876Z,2.22
2018-05-23T22:44:06.395Z,2.77
2018-05-23T22:46:33.932Z,2.15
2018-05-23T22:49:01.456Z,2.30
2018-05-23T22:51:28.996Z,2.60
2018-05-23T22:53:56.512Z,2.30
2018-05-23T22:56:24.055Z,2.40
2018-05-23T22:58:52.343Z,2.50
2018-05-23T23:01:19.894Z,2.15
2018-05-23T23:03:47.411Z,2.12
2018-05-23T23:06:14.932Z,2.27
2018-05-23T23:08:42.456Z,2.17
2018-05-23T23:11:09.995Z,2.53
2018-05-23T23:13:37.506Z,2.20
2018-05-23T23:16:05.047Z,2.10
2018-05-23T23:18:32.572Z,2.40
2018-05-23T23:21:00.120Z,2.23
2018-05-23T23:23:27.641Z,1.73
2018-05-23T23:25:55.161Z,2.20
2018-05-23T23:28:22.680Z,2.08
2018-05-23T23:30:50.202Z,2.17
2018-05-23T23:33:17.715Z,1.70
2018-05-23T23:35:45.240Z,2.20
2018-05-23T23:38:12.764Z,1.87
2018-05-23T23:40:40.277Z,2.10
2018-05-23T23:43:07.829Z,2.10
2018-05-23T23:45:35.348Z,1.70
2018-05-23T23:48:03.633Z,2.35
2018-05-23T23:50:31.157Z,1.90
2018-05-23T23:52:58.671Z,1.90
2018-05-23T23:55:26.970Z,2.00
2018-05-23T23:57:54.501Z,1.90
